Pagrindinis puslapis
METAR-TAF:

METAR-TAF

Oro uostai :

Udontanis, Tailandas

platuma: 17-23N, ilguma: 102-48E, Aukštis: 177 m

Dabartinis oras

Ataskaita buvo paskelbta 53 minutes, ne 07:00 UTC
Vėjas 6 kt iš Rytų/Šiaurės Rytų, svyruoja nuo Šiaurės/Šiaurės Vakarų ir Pietų/Pietryčių
Temperatūra 32°C
Drėgmė 36%
Slėgis 1013 hPa
Matomumas 10 km arba daugiau
nėra debesų žemiau 1500 m ir nėra kamuolinių lietaus debesų

METAR: VTUD 270700Z 07006KT 340V150 CAVOK 32/15 Q1013 NOSIG

Laikas: 14:53 (07:53 UTC)

Prognozė

Ataskaita buvo paskelbta 2 valandos ir 53 minutes, ne 05:00 UTC
Prognozė galioja nuo 27 metu 06 UTC su 28 metu 06 UTC
Vėjas 6 kt iš Rytų/Šiaurės Rytų
Matomumas 10 km arba daugiau
Mažai debesys ne aukštis 3000 ft
Tapsmas
nuo 27 metu 21 UTC su 27 metu 23 UTC
Matomumas: 5000 m
rūkana
Tapsmas
nuo 28 metu 02 UTC su 28 metu 04 UTC
Matomumas: 9000 m

TAF: VTUD 270500Z 2706/2806 06006KT 9999 FEW030 BECMG 2721/2723 5000 BR NSC BECMG 2802/2804 9000 NSW

Orai ataskaitas ir orų prognozės (METAR, TAF).

turimą stotys yra geltonos ir raudonos taškus žemėlapyje.

Perkelti pele per norėdami pamatyti stoties vardą.

Tada spustelėkite, norėdami matyti oro stebėjimo ir prognozės.

Norėdami pakeisti žemėlapį: spustelėkite ant žalios mygtukų su juodo kryžiaus žemyn,; žalią mygtuką su brūkšneliu, jei norite nutolinti; arba žalių rodyklių gretimoms žemėlapius.


METAR-TAF: